Davidson, NC (28035)

8:58 PM EST on January 21, 2017 (GMT -0500)
Spinnaker Point | | Change Station

Elev 758 ft 35.51 °N, 80.86 °W | Updated 17 seconds ago

Overcast
Overcast
54.7 °F
Feels Like 54.7 °F
N
0.0
Wind Variable Wind from North

Today
High -- | Low -- °F
--% Chance of Precip.
Yesterday
High -- | Low -- °F
Precip. -- in
Pressure 29.69 in
Visibility 3.0 miles
Clouds Overcast 400 ft
Dew Point 53 °F
Humidity 93%
Rainfall Not available.
Snow Depth Not available.
7:29 AM 5:40 PM
Waning Crescent, 30% visible
METAR KJQF 220150Z 00000KT 3SM BR OVC004 13/13 A2969
Pressure 29.69 in
Visibility 3.0 miles
Clouds Overcast 400 ft
Dew Point 53 °F
Humidity 93%
Rainfall Not available.
Snow Depth Not available.
7:29 AM 5:40 PM
Waning Crescent, 30% visible
METAR KJQF 220150Z 00000KT 3SM BR OVC004 13/13 A2969

Get Your Daily Forecast Email!

Thanks for signing up!

Be on the lookout for a verification email in your inbox.

You'll start receiving the daily forecast at 8 AM.

×

10-Day Weather Forecast

Almanac

Astronomy

Jan. 21, 2017 Rise Set
Actual Time
Civil Twilight
Nautical Twilight
Astronomical Twilight
Moon
Length of Visible Light
Length of Day
Tomorrow will be .
, % of the Moon is Illuminated

Today's Extremes

State Highs State Lows

Community

WunderPhotos

Upload Photos

1,962,540 photos uploaded!

WunderBlog® & News

Nearby

Air Quality

  Air Quality AQ Index Pollutant
Not available.

Snow Depth

Station Depth Elevation

Earthquake Activity

City Distance Mag. Time & Date
Minimum magnitude displayed is 2.5.

Coastal Water Temperatures

Place Temperature

Stations

Nearby Weather Stations

Station Location Temp. Windchill Dew Point Humidity Wind Precip. Elev Updated Type
                   

Watches & Warnings

There are currently no watches in effect.